createdAt,value
2017-12-19T00:00:35.690Z,3.68
2017-12-19T00:01:36.401Z,3.62
2017-12-19T00:02:37.107Z,3.68
2017-12-19T00:03:37.816Z,3.65
2017-12-19T00:04:38.535Z,3.63
2017-12-19T00:05:39.249Z,3.58
2017-12-19T00:06:39.951Z,3.59
2017-12-19T00:07:40.657Z,3.58
2017-12-19T00:08:41.364Z,3.60
2017-12-19T00:09:42.070Z,3.63
2017-12-19T00:10:42.792Z,3.59
2017-12-19T00:11:43.498Z,3.56
2017-12-19T00:12:44.218Z,3.68
2017-12-19T00:13:44.927Z,3.60
2017-12-19T00:14:45.649Z,3.62
2017-12-19T00:15:46.358Z,3.63
2017-12-19T00:16:47.065Z,3.66
2017-12-19T00:17:47.781Z,3.69
2017-12-19T00:18:48.501Z,3.70
2017-12-19T00:19:49.226Z,3.65
2017-12-19T00:20:49.927Z,3.70
2017-12-19T00:21:50.633Z,3.63
2017-12-19T00:22:51.342Z,3.66
2017-12-19T00:23:52.047Z,3.68
2017-12-19T00:24:52.753Z,3.76
2017-12-19T00:25:53.461Z,3.74
2017-12-19T00:26:54.167Z,3.63
2017-12-19T00:27:54.875Z,3.66
2017-12-19T00:28:55.582Z,3.66
2017-12-19T00:29:56.288Z,3.63
2017-12-19T00:30:56.994Z,3.74
2017-12-19T00:31:57.701Z,3.76
2017-12-19T00:32:58.409Z,3.73
2017-12-19T00:33:59.112Z,3.73
2017-12-19T00:34:59.817Z,3.70
2017-12-19T00:36:00.524Z,3.68
2017-12-19T00:37:01.244Z,3.66
2017-12-19T00:38:01.950Z,3.66
2017-12-19T00:39:02.656Z,3.62
2017-12-19T00:40:03.363Z,3.70
2017-12-19T00:41:04.070Z,3.68
2017-12-19T00:42:04.789Z,3.69
2017-12-19T00:43:05.509Z,3.70
2017-12-19T00:44:06.216Z,3.70
2017-12-19T00:45:06.923Z,3.68
2017-12-19T00:46:07.629Z,3.69
2017-12-19T00:47:08.336Z,3.73
2017-12-19T00:48:09.042Z,3.63
2017-12-19T00:49:09.761Z,3.65
2017-12-19T00:50:10.468Z,3.63
2017-12-19T00:51:11.188Z,3.66
2017-12-19T00:52:11.897Z,3.68
2017-12-19T00:53:12.606Z,3.69
2017-12-19T00:54:13.324Z,3.70
2017-12-19T00:55:14.030Z,3.62
2017-12-19T00:56:14.738Z,3.68
2017-12-19T00:57:15.444Z,3.74
2017-12-19T00:58:16.149Z,3.66
2017-12-19T00:59:16.869Z,3.56
2017-12-19T01:00:17.576Z,3.60
2017-12-19T01:01:18.284Z,3.59
2017-12-19T01:02:18.991Z,3.62
2017-12-19T01:03:19.694Z,3.65
2017-12-19T01:04:20.402Z,3.60
2017-12-19T01:05:21.109Z,3.69
2017-12-19T01:06:21.815Z,3.66
2017-12-19T01:07:22.522Z,3.73
2017-12-19T01:08:23.229Z,3.66
2017-12-19T01:09:23.935Z,3.70
2017-12-19T01:10:24.642Z,3.74
2017-12-19T01:11:25.363Z,3.62
2017-12-19T01:12:26.070Z,3.70
2017-12-19T01:13:26.777Z,3.70
2017-12-19T01:14:27.485Z,3.69
2017-12-19T01:15:28.191Z,3.66
2017-12-19T01:16:28.898Z,3.69
2017-12-19T01:17:29.616Z,3.73
2017-12-19T01:18:30.322Z,3.69
2017-12-19T01:19:31.028Z,3.66
2017-12-19T01:20:31.731Z,3.63
2017-12-19T01:21:32.452Z,3.74
2017-12-19T01:22:33.161Z,3.69
2017-12-19T01:23:33.867Z,3.74
2017-12-19T01:24:34.586Z,3.69
2017-12-19T01:25:35.291Z,3.73
2017-12-19T01:26:36.011Z,3.76
2017-12-19T01:27:36.717Z,3.78
2017-12-19T01:28:37.421Z,3.70
2017-12-19T01:29:38.127Z,3.70
2017-12-19T01:30:38.835Z,3.68
2017-12-19T01:31:39.544Z,3.77
2017-12-19T01:32:40.250Z,3.70
2017-12-19T01:33:40.966Z,3.68
2017-12-19T01:34:41.665Z,3.68
2017-12-19T01:35:42.387Z,3.74
2017-12-19T01:36:43.107Z,3.59
2017-12-19T01:37:43.828Z,3.66
2017-12-19T01:38:44.534Z,3.73
2017-12-19T01:39:45.240Z,3.70
2017-12-19T01:40:45.961Z,3.69
2017-12-19T01:41:46.669Z,3.73
2017-12-19T01:42:47.386Z,3.66
2017-12-19T01:43:48.103Z,3.69
2017-12-19T01:44:48.810Z,3.74
2017-12-19T01:45:49.517Z,3.78
2017-12-19T01:46:50.222Z,3.66
2017-12-19T01:47:50.928Z,3.74
2017-12-19T01:48:51.648Z,3.68
2017-12-19T01:49:52.355Z,3.73
2017-12-19T01:50:53.073Z,3.70
2017-12-19T01:51:53.777Z,3.66
2017-12-19T01:52:54.484Z,3.66
2017-12-19T01:53:55.189Z,3.70
2017-12-19T01:54:55.895Z,3.74
2017-12-19T01:55:56.602Z,3.76
2017-12-19T01:56:57.309Z,3.70
2017-12-19T01:57:58.026Z,3.83
2017-12-19T01:58:58.734Z,3.84
2017-12-19T01:59:59.452Z,3.76
2017-12-19T02:01:00.158Z,3.65
2017-12-19T02:02:00.864Z,3.77
2017-12-19T02:03:01.582Z,3.76
2017-12-19T02:04:02.294Z,3.73
2017-12-19T02:05:02.995Z,3.73
2017-12-19T02:06:03.699Z,3.70
2017-12-19T02:07:04.405Z,3.69
2017-12-19T02:08:05.113Z,3.77
2017-12-19T02:09:05.818Z,3.84
2017-12-19T02:10:06.524Z,3.73
2017-12-19T02:11:07.229Z,3.83
2017-12-19T02:12:07.935Z,3.74
2017-12-19T02:13:08.642Z,3.76
2017-12-19T02:14:09.349Z,3.73
2017-12-19T02:15:10.055Z,3.65
2017-12-19T02:16:10.764Z,3.66
2017-12-19T02:17:11.471Z,3.70
2017-12-19T02:18:12.177Z,3.62
2017-12-19T02:19:12.881Z,3.65
2017-12-19T02:20:13.600Z,3.60
2017-12-19T02:21:14.305Z,3.66
2017-12-19T02:22:15.011Z,3.74
2017-12-19T02:23:15.718Z,3.73
2017-12-19T02:24:16.425Z,3.68
2017-12-19T02:25:17.130Z,3.66
2017-12-19T02:26:17.851Z,3.66
2017-12-19T02:27:18.562Z,3.69
2017-12-19T02:28:19.277Z,3.59
2017-12-19T02:29:19.983Z,3.74
2017-12-19T02:30:20.690Z,3.69
2017-12-19T02:31:21.397Z,3.59
2017-12-19T02:32:22.120Z,3.73
2017-12-19T02:33:22.826Z,3.66
2017-12-19T02:34:23.532Z,3.73
2017-12-19T02:35:24.238Z,3.62
2017-12-19T02:36:24.943Z,3.65
2017-12-19T02:37:25.662Z,3.62
2017-12-19T02:38:26.367Z,3.58
2017-12-19T02:39:27.073Z,3.70
2017-12-19T02:40:27.780Z,3.63
2017-12-19T02:41:28.489Z,3.63
2017-12-19T02:42:29.211Z,3.69
2017-12-19T02:43:29.913Z,3.62
2017-12-19T02:44:30.620Z,3.59
2017-12-19T02:45:31.338Z,3.63
2017-12-19T02:46:32.045Z,3.58
2017-12-19T02:47:32.751Z,3.59
2017-12-19T02:48:33.470Z,3.56
2017-12-19T02:49:34.177Z,3.56
2017-12-19T02:50:34.891Z,3.56
2017-12-19T02:51:35.590Z,3.59
2017-12-19T02:52:36.297Z,3.58
2017-12-19T02:53:37.001Z,3.59
2017-12-19T02:54:37.719Z,3.53
2017-12-19T02:55:38.426Z,3.45
2017-12-19T02:56:39.132Z,3.51
2017-12-19T02:57:39.835Z,3.53
2017-12-19T02:58:40.541Z,3.50
2017-12-19T02:59:41.246Z,3.50
2017-12-19T03:00:41.950Z,3.47
2017-12-19T03:01:42.670Z,3.42
2017-12-19T03:02:43.390Z,3.47
2017-12-19T03:03:44.097Z,3.50
2017-12-19T03:04:44.815Z,3.55
2017-12-19T03:05:45.537Z,3.44
2017-12-19T03:06:46.243Z,3.59
2017-12-19T03:07:46.949Z,3.51
2017-12-19T03:08:47.666Z,3.45
2017-12-19T03:09:48.370Z,3.56
2017-12-19T03:10:49.078Z,3.62
2017-12-19T03:11:49.782Z,3.58
2017-12-19T03:12:50.489Z,3.65
2017-12-19T03:13:51.201Z,3.58
2017-12-19T03:14:51.901Z,3.59
2017-12-19T03:15:52.620Z,3.56
2017-12-19T03:16:53.325Z,3.59
2017-12-19T03:17:54.030Z,3.59
2017-12-19T03:18:54.734Z,3.62
2017-12-19T03:19:55.439Z,3.60
2017-12-19T03:20:56.145Z,3.59
2017-12-19T03:21:56.863Z,3.56
2017-12-19T03:22:57.566Z,3.65
2017-12-19T03:23:58.286Z,3.63
2017-12-19T03:24:58.992Z,3.66
2017-12-19T03:25:59.700Z,3.70
2017-12-19T03:27:00.404Z,3.69
2017-12-19T03:28:01.111Z,3.73
2017-12-19T03:29:01.828Z,3.58
2017-12-19T03:30:02.535Z,3.58
2017-12-19T03:31:03.244Z,3.56
2017-12-19T03:32:03.947Z,3.53
2017-12-19T03:33:04.652Z,3.59
2017-12-19T03:34:05.356Z,3.59
2017-12-19T03:35:06.060Z,3.63
2017-12-19T03:36:06.765Z,3.58
2017-12-19T03:37:07.469Z,3.55
2017-12-19T03:38:08.191Z,3.55
2017-12-19T03:39:08.896Z,3.53
2017-12-19T03:40:09.603Z,3.48
2017-12-19T03:41:10.307Z,3.62
2017-12-19T03:42:11.025Z,3.65
2017-12-19T03:43:11.739Z,3.53
2017-12-19T03:44:12.465Z,3.55
2017-12-19T03:45:13.156Z,3.58
2017-12-19T03:46:13.863Z,3.53
2017-12-19T03:47:14.570Z,3.47
2017-12-19T03:48:15.276Z,3.44
2017-12-19T03:49:15.981Z,3.50
2017-12-19T03:50:16.687Z,3.47
2017-12-19T03:51:17.393Z,3.51
2017-12-19T03:52:18.111Z,3.48
2017-12-19T03:53:18.832Z,3.50
2017-12-19T03:54:19.539Z,3.45
2017-12-19T03:55:20.245Z,3.50
2017-12-19T03:56:20.952Z,3.50
2017-12-19T03:57:21.658Z,3.47
2017-12-19T03:58:22.362Z,3.55
2017-12-19T03:59:23.065Z,3.50
2017-12-19T04:00:23.784Z,3.50
2017-12-19T04:01:24.490Z,3.47
2017-12-19T04:02:25.210Z,3.55
2017-12-19T04:03:25.916Z,3.44
2017-12-19T04:04:26.623Z,3.51
2017-12-19T04:05:27.330Z,3.45
2017-12-19T04:06:28.046Z,3.44
2017-12-19T04:07:28.751Z,3.47
2017-12-19T04:08:29.460Z,3.41
2017-12-19T04:09:30.163Z,3.37
2017-12-19T04:10:30.868Z,3.47
2017-12-19T04:11:31.573Z,3.45
2017-12-19T04:12:32.275Z,3.47
2017-12-19T04:13:32.982Z,3.53
2017-12-19T04:14:33.687Z,3.53
2017-12-19T04:15:34.391Z,3.42
2017-12-19T04:16:35.096Z,3.47
2017-12-19T04:17:35.800Z,3.32
2017-12-19T04:18:36.511Z,3.47
2017-12-19T04:19:37.212Z,3.47
2017-12-19T04:20:37.933Z,3.50
2017-12-19T04:21:38.639Z,3.47
2017-12-19T04:22:39.358Z,3.48
2017-12-19T04:23:40.074Z,3.45
2017-12-19T04:24:40.782Z,3.59
2017-12-19T04:25:41.488Z,3.50
2017-12-19T04:26:42.194Z,3.58
2017-12-19T04:27:42.912Z,3.55
2017-12-19T04:28:43.618Z,3.60
2017-12-19T04:29:44.325Z,3.55
2017-12-19T04:30:45.031Z,3.59
2017-12-19T04:31:45.736Z,3.56
2017-12-19T04:32:46.441Z,3.53
2017-12-19T04:33:47.144Z,3.51
2017-12-19T04:34:47.849Z,3.48
2017-12-19T04:35:48.555Z,3.45
2017-12-19T04:36:49.260Z,3.45
2017-12-19T04:37:49.967Z,3.51
2017-12-19T04:38:50.671Z,3.44
2017-12-19T04:39:51.375Z,3.47
2017-12-19T04:40:52.081Z,3.51
2017-12-19T04:41:52.808Z,3.53
2017-12-19T04:42:53.505Z,3.59
2017-12-19T04:43:54.213Z,3.58
2017-12-19T04:44:54.929Z,3.60
2017-12-19T04:45:55.636Z,3.59
2017-12-19T04:46:56.341Z,3.56
2017-12-19T04:47:57.061Z,3.55
2017-12-19T04:48:57.781Z,3.60
2017-12-19T04:49:58.487Z,3.59
2017-12-19T04:50:59.193Z,3.58
2017-12-19T04:51:59.900Z,3.59
2017-12-19T04:53:00.605Z,3.60
2017-12-19T04:54:01.310Z,3.58
2017-12-19T04:55:02.015Z,3.55
2017-12-19T04:56:02.719Z,3.63
2017-12-19T04:57:03.424Z,3.56
2017-12-19T04:58:04.129Z,3.58
2017-12-19T04:59:04.835Z,3.62
2017-12-19T05:00:05.541Z,3.68
2017-12-19T05:01:06.248Z,3.55
2017-12-19T05:02:06.956Z,3.59
2017-12-19T05:03:07.663Z,3.60
2017-12-19T05:04:08.367Z,3.53
2017-12-19T05:05:09.072Z,3.55
2017-12-19T05:06:09.778Z,3.56
2017-12-19T05:07:10.482Z,3.62
2017-12-19T05:08:11.202Z,3.60
2017-12-19T05:09:11.907Z,3.62
2017-12-19T05:10:12.627Z,3.58
2017-12-19T05:11:13.332Z,3.59
2017-12-19T05:12:14.039Z,3.62
2017-12-19T05:13:14.745Z,3.59
2017-12-19T05:14:15.452Z,3.63
2017-12-19T05:15:16.158Z,3.63
2017-12-19T05:16:16.876Z,3.59
2017-12-19T05:17:17.582Z,3.65
2017-12-19T05:18:18.302Z,3.60
2017-12-19T05:19:19.011Z,3.62
2017-12-19T05:20:19.717Z,3.58
2017-12-19T05:21:20.423Z,3.60
2017-12-19T05:22:21.128Z,3.59
2017-12-19T05:23:21.833Z,3.58
2017-12-19T05:24:22.539Z,3.63
2017-12-19T05:25:23.243Z,3.58
2017-12-19T05:26:23.963Z,3.59
2017-12-19T05:27:24.713Z,3.56
2017-12-19T05:28:25.388Z,3.68
2017-12-19T05:29:26.108Z,3.59
2017-12-19T05:30:26.815Z,3.66
2017-12-19T05:31:27.531Z,3.58
2017-12-19T05:32:28.251Z,3.56
2017-12-19T05:33:28.956Z,3.60
2017-12-19T05:34:29.660Z,3.62
2017-12-19T05:35:30.378Z,3.59
2017-12-19T05:36:31.084Z,3.59
2017-12-19T05:37:31.789Z,3.62
2017-12-19T05:38:32.495Z,3.60
2017-12-19T05:39:33.216Z,3.58
2017-12-19T05:40:33.923Z,3.62
2017-12-19T05:41:34.643Z,3.58
2017-12-19T05:42:35.364Z,3.62
2017-12-19T05:43:36.066Z,3.56
2017-12-19T05:44:36.771Z,3.69
2017-12-19T05:45:37.491Z,3.69
2017-12-19T05:46:38.198Z,3.65
2017-12-19T05:47:38.904Z,3.73
2017-12-19T05:48:39.607Z,3.68
2017-12-19T05:49:40.315Z,3.59
2017-12-19T05:50:41.018Z,3.66
2017-12-19T05:51:41.723Z,3.66
2017-12-19T05:52:42.428Z,3.63
2017-12-19T05:53:43.145Z,3.66
2017-12-19T05:54:43.865Z,3.69
2017-12-19T05:55:44.571Z,3.66
2017-12-19T05:56:45.278Z,3.66
2017-12-19T05:57:45.997Z,3.68
2017-12-19T05:58:46.715Z,3.70
2017-12-19T05:59:47.424Z,3.69
2017-12-19T06:00:48.132Z,3.69
2017-12-19T06:01:48.839Z,3.68
2017-12-19T06:02:49.546Z,3.59
2017-12-19T06:03:50.251Z,3.60
2017-12-19T06:04:50.955Z,3.68
2017-12-19T06:05:51.660Z,3.59
2017-12-19T06:06:52.379Z,3.59
2017-12-19T06:07:53.085Z,3.69
2017-12-19T06:08:53.791Z,3.62
2017-12-19T06:09:54.496Z,3.74
2017-12-19T06:10:55.204Z,3.68
2017-12-19T06:11:55.924Z,3.69
2017-12-19T06:12:56.629Z,3.69
2017-12-19T06:13:57.333Z,3.63
2017-12-19T06:14:58.039Z,3.68
2017-12-19T06:15:58.745Z,3.65
2017-12-19T06:16:59.449Z,3.70
2017-12-19T06:18:00.169Z,3.73
2017-12-19T06:19:00.875Z,3.73
2017-12-19T06:20:01.580Z,3.70
2017-12-19T06:21:02.287Z,3.74
2017-12-19T06:22:02.991Z,3.68
2017-12-19T06:23:03.711Z,3.73
2017-12-19T06:24:04.421Z,3.73
2017-12-19T06:25:05.134Z,3.73
2017-12-19T06:26:05.827Z,3.77
2017-12-19T06:27:06.533Z,3.80
2017-12-19T06:28:07.238Z,3.76
2017-12-19T06:29:07.944Z,3.74
2017-12-19T06:30:08.649Z,3.84
2017-12-19T06:31:09.355Z,3.73
2017-12-19T06:32:10.060Z,3.74
2017-12-19T06:33:10.780Z,3.76
2017-12-19T06:34:11.486Z,3.74
2017-12-19T06:35:12.193Z,3.80
2017-12-19T06:36:12.913Z,3.84
2017-12-19T06:37:13.619Z,3.83
2017-12-19T06:38:14.337Z,3.83
2017-12-19T06:39:15.044Z,3.83
2017-12-19T06:40:15.768Z,3.86
2017-12-19T06:41:16.472Z,3.87
2017-12-19T06:42:17.179Z,3.80
2017-12-19T06:43:17.885Z,3.74
2017-12-19T06:44:18.592Z,3.80
2017-12-19T06:45:19.297Z,3.83
2017-12-19T06:46:20.003Z,3.81
2017-12-19T06:47:20.712Z,3.81
2017-12-19T06:48:21.427Z,3.81
2017-12-19T06:49:22.135Z,3.84
2017-12-19T06:50:22.854Z,3.87
2017-12-19T06:51:23.558Z,3.84
2017-12-19T06:52:24.276Z,3.92
2017-12-19T06:53:24.981Z,3.80
2017-12-19T06:54:25.688Z,3.76
2017-12-19T06:55:26.392Z,3.76
2017-12-19T06:56:27.097Z,3.84
2017-12-19T06:57:27.803Z,3.87
2017-12-19T06:58:28.508Z,3.78
2017-12-19T06:59:29.213Z,3.73
2017-12-19T07:00:29.918Z,3.81
2017-12-19T07:01:30.624Z,3.78
2017-12-19T07:02:31.344Z,3.76
2017-12-19T07:03:32.049Z,3.80
2017-12-19T07:04:32.754Z,3.86
2017-12-19T07:05:33.472Z,3.87
2017-12-19T07:06:34.180Z,3.81
2017-12-19T07:07:34.882Z,3.81
2017-12-19T07:08:35.588Z,3.81
2017-12-19T07:09:36.294Z,3.78
2017-12-19T07:10:37.000Z,3.88
2017-12-19T07:11:37.708Z,3.88
2017-12-19T07:12:38.416Z,3.77
2017-12-19T07:13:39.126Z,3.69
2017-12-19T07:14:39.846Z,3.86
2017-12-19T07:15:40.554Z,3.88
2017-12-19T07:16:41.262Z,3.96
2017-12-19T07:17:41.967Z,3.91
2017-12-19T07:18:42.674Z,3.86
2017-12-19T07:19:43.396Z,3.91
2017-12-19T07:20:44.114Z,3.86
2017-12-19T07:21:44.822Z,3.81
2017-12-19T07:22:45.530Z,3.81
2017-12-19T07:23:46.236Z,3.81
2017-12-19T07:24:46.958Z,3.84
2017-12-19T07:25:47.666Z,3.86
2017-12-19T07:26:48.372Z,3.84
2017-12-19T07:27:49.080Z,3.84
2017-12-19T07:28:49.799Z,3.86
2017-12-19T07:29:50.509Z,3.88
2017-12-19T07:30:51.217Z,3.81
2017-12-19T07:31:51.926Z,3.81
2017-12-19T07:32:52.635Z,3.81
2017-12-19T07:33:53.342Z,3.78
2017-12-19T07:34:54.050Z,3.96
2017-12-19T07:35:54.759Z,4.12
2017-12-19T07:36:55.481Z,4.75
2017-12-19T07:37:56.190Z,4.73
2017-12-19T07:38:56.901Z,4.37
2017-12-19T07:39:57.608Z,4.31
2017-12-19T07:40:58.316Z,4.12
2017-12-19T07:41:59.036Z,4.16
2017-12-19T07:42:59.792Z,3.96
2017-12-19T07:44:00.480Z,3.92
2017-12-19T07:45:01.191Z,3.91
2017-12-19T07:46:01.914Z,3.95
2017-12-19T07:47:02.622Z,3.99
2017-12-19T07:48:03.331Z,3.96
2017-12-19T07:49:04.041Z,3.83
2017-12-19T07:50:04.762Z,3.96
2017-12-19T07:51:05.474Z,3.96
2017-12-19T07:52:06.198Z,3.86
2017-12-19T07:53:06.916Z,3.84
2017-12-19T07:54:07.634Z,3.92
2017-12-19T07:55:08.342Z,3.95
2017-12-19T07:56:09.050Z,3.88
2017-12-19T07:57:09.759Z,3.92
2017-12-19T07:58:10.468Z,3.88
2017-12-19T07:59:11.192Z,3.95
2017-12-19T08:00:11.903Z,3.87
2017-12-19T08:01:12.613Z,3.95
2017-12-19T08:02:13.321Z,3.96
2017-12-19T08:03:14.030Z,3.98
2017-12-19T08:04:14.753Z,3.98
2017-12-19T08:05:15.464Z,3.91
2017-12-19T08:06:16.173Z,3.92
2017-12-19T08:07:16.886Z,3.95
2017-12-19T08:08:17.603Z,3.96
2017-12-19T08:09:18.312Z,3.91
2017-12-19T08:10:19.024Z,3.92
2017-12-19T08:11:19.735Z,3.91
2017-12-19T08:12:20.444Z,3.95
2017-12-19T08:13:21.153Z,3.92
2017-12-19T08:14:21.869Z,3.87
2017-12-19T08:15:22.587Z,3.98
2017-12-19T08:16:23.310Z,3.96
2017-12-19T08:17:24.020Z,3.92
2017-12-19T08:18:24.728Z,3.88
2017-12-19T08:19:25.439Z,3.88
2017-12-19T08:20:26.149Z,3.88
2017-12-19T08:21:26.874Z,3.98
2017-12-19T08:22:27.586Z,4.05
2017-12-19T08:23:28.294Z,3.94
2017-12-19T08:24:29.018Z,3.99
2017-12-19T08:25:29.727Z,4.01
2017-12-19T08:26:30.449Z,4.05
2017-12-19T08:27:31.157Z,4.06
2017-12-19T08:28:31.867Z,4.05
2017-12-19T08:29:32.579Z,4.04
2017-12-19T08:30:33.287Z,3.99
2017-12-19T08:31:33.997Z,4.01
2017-12-19T08:32:34.722Z,4.05
2017-12-19T08:33:35.431Z,4.04
2017-12-19T08:34:36.142Z,4.04
2017-12-19T08:35:36.851Z,4.02
2017-12-19T08:36:37.562Z,4.10
2017-12-19T08:37:38.285Z,4.05
2017-12-19T08:38:38.997Z,4.10
2017-12-19T08:39:39.722Z,4.08
2017-12-19T08:40:40.437Z,4.22
2017-12-19T08:41:41.148Z,4.24
2017-12-19T08:42:41.869Z,4.17
2017-12-19T08:43:42.579Z,4.19
2017-12-19T08:44:43.290Z,4.14
2017-12-19T08:45:43.999Z,4.24
2017-12-19T08:46:44.724Z,4.20
2017-12-19T08:49:00.653Z,4.31
2017-12-19T08:50:01.367Z,4.24
2017-12-19T08:51:02.078Z,4.32
2017-12-19T08:52:02.790Z,4.24
2017-12-19T08:53:03.515Z,4.20
2017-12-19T08:54:04.228Z,4.26
2017-12-19T08:55:04.938Z,4.28
2017-12-19T08:56:05.686Z,4.31
2017-12-19T08:57:06.372Z,4.30
2017-12-19T08:58:07.097Z,4.32
2017-12-19T08:59:07.809Z,4.24
2017-12-19T09:00:08.519Z,4.32
2017-12-19T09:01:09.231Z,4.28
2017-12-19T09:02:09.941Z,4.30
2017-12-19T09:03:10.653Z,4.31
2017-12-19T09:04:11.363Z,4.31
2017-12-19T09:05:12.074Z,4.37
2017-12-19T09:06:12.784Z,4.35
2017-12-19T09:07:13.494Z,4.37
2017-12-19T09:08:14.204Z,4.40
2017-12-19T09:09:14.917Z,4.42
2017-12-19T09:10:15.629Z,4.40
2017-12-19T09:11:16.353Z,4.37
2017-12-19T09:12:17.063Z,4.37
2017-12-19T09:13:17.779Z,4.41
2017-12-19T09:14:18.487Z,4.45
2017-12-19T09:15:19.196Z,4.50
2017-12-19T09:16:19.920Z,4.50
2017-12-19T09:17:20.646Z,4.50
2017-12-19T09:18:21.357Z,4.48
2017-12-19T09:19:22.066Z,4.48
2017-12-19T09:20:22.776Z,4.44
2017-12-19T09:21:23.487Z,4.55
2017-12-19T09:22:24.211Z,4.58
2017-12-19T09:23:24.920Z,4.53
2017-12-19T09:24:25.632Z,4.53
2017-12-19T09:25:26.354Z,4.58
2017-12-19T09:26:27.073Z,4.53
2017-12-19T09:27:27.788Z,4.62
2017-12-19T09:28:28.498Z,4.59
2017-12-19T09:29:29.208Z,4.60
2017-12-19T09:30:29.917Z,4.58
2017-12-19T09:31:30.626Z,4.70
2017-12-19T09:32:31.341Z,4.68
2017-12-19T09:33:32.051Z,4.67
2017-12-19T09:34:32.760Z,4.62
2017-12-19T09:35:33.470Z,4.60
2017-12-19T09:36:34.194Z,4.60
2017-12-19T09:37:34.907Z,4.60
2017-12-19T09:38:35.618Z,4.67
2017-12-19T09:39:36.330Z,4.70
2017-12-19T09:40:37.040Z,4.59
2017-12-19T09:41:37.750Z,4.63
2017-12-19T09:42:38.462Z,4.73
2017-12-19T09:43:39.187Z,4.70
2017-12-19T09:44:39.896Z,4.68
2017-12-19T09:45:40.618Z,4.71
2017-12-19T09:46:41.330Z,4.74
2017-12-19T09:47:42.044Z,4.73
2017-12-19T09:48:42.756Z,4.70
2017-12-19T09:49:43.480Z,4.82
2017-12-19T09:50:44.191Z,4.78
2017-12-19T09:51:44.903Z,4.84
2017-12-19T09:52:45.615Z,4.82
2017-12-19T09:53:46.325Z,4.77
2017-12-19T09:54:47.049Z,4.82
2017-12-19T09:55:47.759Z,4.78
2017-12-19T09:56:48.482Z,4.82
2017-12-19T09:57:49.194Z,4.89
2017-12-19T09:58:49.905Z,4.75
2017-12-19T09:59:50.615Z,4.86
2017-12-19T10:00:51.326Z,4.74
2017-12-19T10:01:52.038Z,4.84
2017-12-19T10:02:52.763Z,4.87
2017-12-19T10:03:53.488Z,4.84
2017-12-19T10:04:54.199Z,4.84
2017-12-19T10:05:54.923Z,4.89
2017-12-19T10:06:55.647Z,4.96
2017-12-19T10:07:56.365Z,4.99
2017-12-19T10:08:57.070Z,5.00
2017-12-19T10:09:57.781Z,5.08
2017-12-19T10:10:58.493Z,5.07
2017-12-19T10:11:59.220Z,4.99
2017-12-19T10:12:59.945Z,4.97
2017-12-19T10:14:00.656Z,4.97
2017-12-19T10:15:01.366Z,4.99
2017-12-19T10:16:02.093Z,4.97
2017-12-19T10:17:02.804Z,5.10
2017-12-19T10:18:03.516Z,5.15
2017-12-19T10:19:04.244Z,5.14
2017-12-19T10:20:04.957Z,5.15
2017-12-19T10:21:05.670Z,5.17
2017-12-19T10:22:06.383Z,5.05
2017-12-19T10:23:07.094Z,5.14
2017-12-19T10:24:07.805Z,5.21
2017-12-19T10:25:08.532Z,5.15
2017-12-19T10:26:09.246Z,5.20
2017-12-19T10:27:09.958Z,5.29
2017-12-19T10:28:10.671Z,5.32
2017-12-19T10:29:11.386Z,5.38
2017-12-19T10:30:12.098Z,5.36
2017-12-19T10:31:12.810Z,5.39
2017-12-19T10:32:13.522Z,5.35
2017-12-19T10:33:14.236Z,5.36
2017-12-19T10:34:14.976Z,5.35
2017-12-19T10:35:15.672Z,5.36
2017-12-19T10:36:16.395Z,5.35
2017-12-19T10:37:17.109Z,5.33
2017-12-19T10:38:17.822Z,5.33
2017-12-19T10:39:18.536Z,5.41
2017-12-19T10:40:19.249Z,5.36
2017-12-19T10:41:19.963Z,5.43
2017-12-19T10:42:20.675Z,5.43
2017-12-19T10:43:21.391Z,5.39
2017-12-19T10:44:22.101Z,5.44
2017-12-19T10:45:22.847Z,5.53
2017-12-19T10:46:23.528Z,5.56
2017-12-19T10:47:24.242Z,5.50
2017-12-19T10:48:24.953Z,5.47
2017-12-19T10:49:25.665Z,5.51
2017-12-19T10:50:26.392Z,5.47
2017-12-19T10:51:27.107Z,5.44
2017-12-19T10:52:27.833Z,5.46
2017-12-19T10:53:28.546Z,5.47
2017-12-19T10:54:29.259Z,5.48
2017-12-19T10:55:29.973Z,5.47
2017-12-19T10:56:30.685Z,5.48
2017-12-19T10:57:31.396Z,5.44
2017-12-19T10:58:32.112Z,5.48
2017-12-19T10:59:32.838Z,5.46
2017-12-19T11:00:33.551Z,5.46
2017-12-19T11:01:34.265Z,5.43
2017-12-19T11:02:34.979Z,5.61
2017-12-19T11:03:35.689Z,5.56
2017-12-19T11:04:36.415Z,5.59
2017-12-19T11:05:37.126Z,5.62
2017-12-19T11:06:37.837Z,5.51
2017-12-19T11:07:38.562Z,5.59
2017-12-19T11:08:39.272Z,5.56
2017-12-19T11:09:39.986Z,5.61
2017-12-19T11:10:40.696Z,5.57
2017-12-19T11:11:41.411Z,5.62
2017-12-19T11:12:42.120Z,5.59
2017-12-19T11:13:42.845Z,5.56
2017-12-19T11:14:43.556Z,5.51
2017-12-19T11:15:44.268Z,5.47
2017-12-19T11:16:44.980Z,5.56
2017-12-19T11:17:45.705Z,5.59
2017-12-19T11:18:46.416Z,5.56
2017-12-19T11:19:47.128Z,5.50
2017-12-19T11:20:47.855Z,5.62
2017-12-19T11:21:48.567Z,5.51
2017-12-19T11:22:49.280Z,5.59
2017-12-19T11:23:49.991Z,5.57
2017-12-19T11:24:50.705Z,5.59
2017-12-19T11:25:51.416Z,5.48
2017-12-19T11:26:52.127Z,5.54
2017-12-19T11:27:52.841Z,5.50
2017-12-19T11:28:53.552Z,5.50
2017-12-19T11:29:54.262Z,5.48
2017-12-19T11:30:54.974Z,5.51
2017-12-19T11:31:55.685Z,5.57
2017-12-19T11:32:56.398Z,5.57
2017-12-19T11:33:57.110Z,5.68
2017-12-19T11:34:57.821Z,5.68
2017-12-19T11:35:58.533Z,5.73
2017-12-19T11:36:59.253Z,5.79
2017-12-19T11:37:59.956Z,5.80
2017-12-19T11:39:00.669Z,5.72
2017-12-19T11:40:01.380Z,5.75
2017-12-19T11:41:02.093Z,5.73
2017-12-19T11:42:02.819Z,5.82
2017-12-19T11:43:03.531Z,5.80
2017-12-19T11:44:04.250Z,5.83
2017-12-19T11:45:04.969Z,5.80
2017-12-19T11:46:05.680Z,5.86
2017-12-19T11:47:06.392Z,5.89
2017-12-19T11:48:07.105Z,5.86
2017-12-19T11:49:07.816Z,5.87
2017-12-19T11:50:08.542Z,5.97
2017-12-19T11:51:09.268Z,5.89
2017-12-19T11:52:09.979Z,5.89
2017-12-19T11:53:10.691Z,5.98
2017-12-19T11:54:11.416Z,5.98
2017-12-19T11:55:12.127Z,6.05
2017-12-19T11:56:12.840Z,6.04
2017-12-19T11:57:13.566Z,5.99
2017-12-19T11:58:14.278Z,5.94
2017-12-19T11:59:14.990Z,6.05
2017-12-19T12:00:15.702Z,5.89
2017-12-19T12:01:16.415Z,5.98
2017-12-19T12:02:17.143Z,5.93
2017-12-19T12:03:17.914Z,6.01
2017-12-19T12:04:18.568Z,5.97
2017-12-19T12:05:19.283Z,5.93
2017-12-19T12:06:19.995Z,5.97
2017-12-19T12:07:20.725Z,5.91
2017-12-19T12:08:21.444Z,5.90
2017-12-19T12:09:22.156Z,5.90
2017-12-19T12:10:22.870Z,5.94
2017-12-19T12:11:23.581Z,5.86
2017-12-19T12:12:24.304Z,5.97
2017-12-19T12:13:25.030Z,5.90
2017-12-19T12:14:25.743Z,5.83
2017-12-19T12:15:26.452Z,5.86
2017-12-19T12:16:27.165Z,5.89
2017-12-19T12:17:27.878Z,5.89
2017-12-19T12:18:28.590Z,5.86
2017-12-19T12:19:29.304Z,5.84
2017-12-19T12:20:30.014Z,5.84
2017-12-19T12:21:30.739Z,5.99
2017-12-19T12:22:31.451Z,5.93
2017-12-19T12:23:32.162Z,5.94
2017-12-19T12:24:32.889Z,5.93
2017-12-19T12:25:33.613Z,6.01
2017-12-19T12:26:34.323Z,6.08
2017-12-19T12:27:35.034Z,5.93
2017-12-19T12:28:35.758Z,5.98
2017-12-19T12:29:36.481Z,5.98
2017-12-19T12:30:37.193Z,6.08
2017-12-19T12:31:37.908Z,6.08
2017-12-19T12:32:38.620Z,6.05
2017-12-19T12:33:39.344Z,6.08
2017-12-19T12:34:40.055Z,6.12
2017-12-19T12:35:40.766Z,6.16
2017-12-19T12:36:41.492Z,6.05
2017-12-19T12:37:42.216Z,6.09
2017-12-19T12:38:42.929Z,6.14
2017-12-19T12:39:43.644Z,6.22
2017-12-19T12:40:44.366Z,6.22
2017-12-19T12:41:45.089Z,6.19
2017-12-19T12:42:45.802Z,6.22
2017-12-19T12:43:46.528Z,6.19
2017-12-19T12:44:47.253Z,6.28
2017-12-19T12:45:47.979Z,6.27
2017-12-19T12:46:48.690Z,6.19
2017-12-19T12:47:49.403Z,6.20
2017-12-19T12:48:50.116Z,6.30
2017-12-19T12:49:50.829Z,6.35
2017-12-19T12:50:51.542Z,6.36
2017-12-19T12:51:52.252Z,6.41
2017-12-19T12:52:52.975Z,6.46
2017-12-19T12:53:53.701Z,6.41
2017-12-19T12:54:54.413Z,6.31
2017-12-19T12:55:55.126Z,6.42
2017-12-19T12:56:55.837Z,6.41
2017-12-19T12:57:56.550Z,6.35
2017-12-19T12:58:57.261Z,6.42
2017-12-19T12:59:57.975Z,6.31
2017-12-19T13:00:58.701Z,6.41
2017-12-19T13:01:59.425Z,6.35
2017-12-19T13:03:00.150Z,6.35
2017-12-19T13:04:00.876Z,6.39
2017-12-19T13:05:01.590Z,6.38
2017-12-19T13:06:02.314Z,6.31
2017-12-19T13:07:03.039Z,6.42
2017-12-19T13:08:03.767Z,6.35
2017-12-19T13:09:04.478Z,6.45
2017-12-19T13:10:05.192Z,6.36
2017-12-19T13:11:05.904Z,6.36
2017-12-19T13:12:06.618Z,6.42
2017-12-19T13:13:07.330Z,6.31
2017-12-19T13:14:08.040Z,6.41
2017-12-19T13:15:08.764Z,6.35
2017-12-19T13:16:09.490Z,6.39
2017-12-19T13:17:10.214Z,6.38
2017-12-19T13:18:10.927Z,6.44
2017-12-19T13:19:11.637Z,6.35
2017-12-19T13:20:12.350Z,6.38
2017-12-19T13:21:13.063Z,6.33
2017-12-19T13:22:13.788Z,6.45
2017-12-19T13:23:14.501Z,6.41
2017-12-19T13:24:15.211Z,6.41
2017-12-19T13:25:15.925Z,6.44
2017-12-19T13:26:16.637Z,6.38
2017-12-19T13:27:17.361Z,6.46
2017-12-19T13:28:18.074Z,6.39
2017-12-19T13:29:18.783Z,6.51